createdAt,value
2023-02-24T00:01:15.536Z,7.74
2023-02-24T00:03:42.133Z,7.72
2023-02-24T00:06:08.695Z,7.69
2023-02-24T00:08:35.569Z,7.69
2023-02-24T00:11:09.166Z,7.68
2023-02-24T00:13:36.217Z,7.65
2023-02-24T00:16:04.704Z,7.62
2023-02-24T00:18:33.768Z,7.56
2023-02-24T00:21:05.683Z,7.48
2023-02-24T00:23:32.264Z,7.38
2023-02-24T00:25:59.676Z,7.27
2023-02-24T00:28:28.187Z,7.20
2023-02-24T00:30:54.849Z,7.13
2023-02-24T00:33:21.603Z,7.09
2023-02-24T00:35:48.157Z,7.02
2023-02-24T00:38:14.826Z,6.96
2023-02-24T00:40:41.588Z,6.90
2023-02-24T00:43:08.160Z,6.87
2023-02-24T00:45:36.873Z,6.85
2023-02-24T00:48:03.447Z,6.80
2023-02-24T00:50:30.567Z,6.76
2023-02-24T00:52:57.178Z,6.72
2023-02-24T00:55:23.790Z,6.65
2023-02-24T00:57:50.492Z,6.63
2023-02-24T01:00:18.161Z,6.60
2023-02-24T01:02:46.113Z,6.56
2023-02-24T01:05:13.448Z,6.52
2023-02-24T01:07:40.066Z,6.49
2023-02-24T01:10:06.992Z,6.43
2023-02-24T01:12:33.740Z,6.37
2023-02-24T01:15:00.314Z,6.33
2023-02-24T01:17:26.928Z,6.29
2023-02-24T01:19:54.943Z,6.25
2023-02-24T01:22:21.748Z,6.24
2023-02-24T01:24:48.575Z,6.21
2023-02-24T01:27:16.822Z,6.15
2023-02-24T01:29:43.575Z,6.13
2023-02-24T01:32:18.212Z,6.09
2023-02-24T01:34:45.036Z,6.01
2023-02-24T01:37:13.118Z,5.99
2023-02-24T01:39:39.684Z,5.98
2023-02-24T01:42:06.388Z,5.94
2023-02-24T01:45:10.226Z,5.91
2023-02-24T01:47:36.789Z,5.85
2023-02-24T01:50:03.958Z,5.81
2023-02-24T01:52:36.434Z,5.80
2023-02-24T01:55:08.581Z,5.78
2023-02-24T01:57:37.900Z,5.70
2023-02-24T02:00:07.062Z,5.66
2023-02-24T02:02:33.850Z,5.63
2023-02-24T02:05:03.748Z,5.63
2023-02-24T02:07:32.083Z,5.60
2023-02-24T02:10:00.976Z,5.55
2023-02-24T02:12:28.389Z,5.47
2023-02-24T02:14:57.504Z,5.41
2023-02-24T02:17:30.261Z,5.40
2023-02-24T02:20:20.956Z,5.37
2023-02-24T02:23:20.713Z,5.35
2023-02-24T02:26:08.840Z,5.35
2023-02-24T02:29:07.685Z,5.32
2023-02-24T02:31:56.005Z,5.29
2023-02-24T02:34:39.861Z,5.24
2023-02-24T02:37:12.009Z,5.22
2023-02-24T02:39:48.211Z,5.22
2023-02-24T02:42:25.508Z,5.21
2023-02-24T02:44:56.562Z,5.18
2023-02-24T02:47:27.929Z,5.17
2023-02-24T02:50:00.158Z,5.18
2023-02-24T02:52:32.259Z,5.18
2023-02-24T02:55:06.624Z,5.18
2023-02-24T02:57:35.781Z,5.14
2023-02-24T03:00:07.834Z,5.16
2023-02-24T03:02:35.828Z,5.13
2023-02-24T03:05:07.176Z,5.13
2023-02-24T03:07:37.732Z,5.13
2023-02-24T03:10:08.485Z,5.13
2023-02-24T03:12:36.316Z,5.12
2023-02-24T03:15:08.184Z,5.13
2023-02-24T03:17:40.903Z,5.15
2023-02-24T03:20:13.728Z,5.13
2023-02-24T03:22:45.566Z,5.11
2023-02-24T03:25:12.221Z,5.13
2023-02-24T03:27:45.703Z,5.11
2023-02-24T03:30:16.909Z,5.11
2023-02-24T03:32:49.456Z,5.10
2023-02-24T03:35:21.284Z,5.10
2023-02-24T03:37:48.488Z,5.09
2023-02-24T03:40:15.826Z,5.09
2023-02-24T03:42:47.137Z,5.06
2023-02-24T03:45:14.256Z,5.06
2023-02-24T03:47:41.050Z,5.05
2023-02-24T03:50:12.293Z,5.05
2023-02-24T03:52:44.803Z,5.03
2023-02-24T03:55:21.333Z,5.02
2023-02-24T03:58:00.497Z,5.00
2023-02-24T04:00:35.235Z,4.99
2023-02-24T04:03:11.154Z,4.96
2023-02-24T04:05:45.672Z,4.95
2023-02-24T04:08:16.005Z,4.93
2023-02-24T04:10:50.688Z,4.95
2023-02-24T04:13:23.152Z,4.95
2023-02-24T04:15:55.392Z,4.95
2023-02-24T04:18:27.162Z,4.93
2023-02-24T04:20:55.506Z,4.91
2023-02-24T04:23:28.865Z,4.90
2023-02-24T04:25:55.397Z,4.89
2023-02-24T04:28:23.418Z,4.88
2023-02-24T04:30:53.920Z,4.89
2023-02-24T04:33:20.948Z,4.90
2023-02-24T04:35:49.541Z,4.89
2023-02-24T04:38:16.293Z,4.89
2023-02-24T04:40:44.257Z,4.88
2023-02-24T04:43:10.984Z,4.88
2023-02-24T04:45:37.574Z,4.88
2023-02-24T04:48:04.242Z,4.87
2023-02-24T04:50:32.464Z,4.88
2023-02-24T04:53:00.969Z,4.88
2023-02-24T04:55:29.756Z,4.89
2023-02-24T04:57:58.634Z,4.89
2023-02-24T05:00:26.060Z,4.87
2023-02-24T05:02:55.317Z,4.85
2023-02-24T05:05:23.233Z,4.83
2023-02-24T05:07:49.814Z,4.84
2023-02-24T05:10:16.800Z,4.85
2023-02-24T05:12:43.481Z,4.83
2023-02-24T05:15:12.388Z,4.83
2023-02-24T05:17:39.050Z,4.80
2023-02-24T05:20:07.232Z,4.77
2023-02-24T05:22:33.945Z,4.75
2023-02-24T05:25:00.582Z,4.76
2023-02-24T05:27:27.209Z,4.76
2023-02-24T05:29:55.447Z,4.75
2023-02-24T05:32:23.731Z,4.74
2023-02-24T05:34:50.596Z,4.72
2023-02-24T05:37:17.164Z,4.72
2023-02-24T05:39:43.769Z,4.71
2023-02-24T05:42:10.405Z,4.71
2023-02-24T05:44:37.030Z,4.70
2023-02-24T05:47:04.132Z,4.69
2023-02-24T05:49:33.837Z,4.70
2023-02-24T05:52:02.877Z,4.70
2023-02-24T05:54:31.635Z,4.71
2023-02-24T05:56:59.574Z,4.72
2023-02-24T05:59:26.796Z,4.72
2023-02-24T06:01:53.545Z,4.71
2023-02-24T06:04:20.618Z,4.73
2023-02-24T06:06:49.198Z,4.71
2023-02-24T06:09:15.794Z,4.70
2023-02-24T06:11:43.697Z,4.70
2023-02-24T06:14:11.670Z,4.69
2023-02-24T06:16:40.305Z,4.68
2023-02-24T06:19:08.629Z,4.67
2023-02-24T06:21:35.427Z,4.67
2023-02-24T06:24:03.545Z,4.68
2023-02-24T06:26:30.125Z,4.68
2023-02-24T06:28:57.867Z,4.68
2023-02-24T06:31:25.224Z,4.68
2023-02-24T06:33:52.166Z,4.66
2023-02-24T06:36:19.143Z,4.68
2023-02-24T06:38:46.194Z,4.65
2023-02-24T06:41:14.108Z,4.65
2023-02-24T06:43:43.386Z,4.68
2023-02-24T06:46:12.261Z,4.66
2023-02-24T06:48:39.021Z,4.67
2023-02-24T06:51:07.043Z,4.67
2023-02-24T06:53:34.455Z,4.66
2023-02-24T06:56:04.741Z,4.66
2023-02-24T06:58:33.171Z,4.67
2023-02-24T07:00:59.796Z,4.66
2023-02-24T07:03:28.278Z,4.67
2023-02-24T07:05:55.019Z,4.66
2023-02-24T07:08:22.650Z,4.66
2023-02-24T07:10:53.664Z,4.66
2023-02-24T07:13:20.286Z,4.68
2023-02-24T07:15:48.460Z,4.65
2023-02-24T07:18:16.047Z,4.67
2023-02-24T07:20:42.900Z,4.66
2023-02-24T07:23:09.672Z,4.65
2023-02-24T07:25:36.589Z,4.64
2023-02-24T07:28:03.339Z,4.65
2023-02-24T07:30:30.580Z,4.65
2023-02-24T07:32:58.995Z,4.68
2023-02-24T07:35:26.152Z,4.69
2023-02-24T07:37:52.736Z,4.72
2023-02-24T07:40:19.491Z,4.75
2023-02-24T07:42:46.110Z,4.78
2023-02-24T07:45:12.727Z,4.80
2023-02-24T07:47:39.514Z,4.83
2023-02-24T07:50:08.982Z,4.86
2023-02-24T07:52:35.573Z,4.90
2023-02-24T07:55:02.354Z,4.92
2023-02-24T07:57:28.983Z,4.92
2023-02-24T07:59:55.621Z,4.95
2023-02-24T08:02:22.238Z,4.98
2023-02-24T08:04:50.632Z,5.02
2023-02-24T08:07:19.699Z,5.05
2023-02-24T08:09:46.562Z,5.06
2023-02-24T08:12:15.417Z,5.07
2023-02-24T08:14:42.109Z,5.09
2023-02-24T08:17:08.857Z,5.12
2023-02-24T08:19:35.467Z,5.19
2023-02-24T08:22:02.370Z,5.23
2023-02-24T08:24:30.326Z,5.29
2023-02-24T08:26:57.426Z,5.34
2023-02-24T08:29:24.257Z,5.39
2023-02-24T08:31:50.945Z,5.45
2023-02-24T08:34:17.663Z,5.51
2023-02-24T08:36:44.272Z,5.54
2023-02-24T08:39:10.824Z,5.57
2023-02-24T08:41:38.977Z,5.62
2023-02-24T08:44:05.541Z,5.68
2023-02-24T08:46:32.207Z,5.70
2023-02-24T08:48:59.905Z,5.74
2023-02-24T08:51:29.489Z,5.82
2023-02-24T08:53:58.289Z,5.89
2023-02-24T08:56:28.543Z,5.92
2023-02-24T08:58:58.343Z,5.94
2023-02-24T09:01:28.404Z,5.96
2023-02-24T09:03:57.352Z,5.97
2023-02-24T09:06:35.285Z,5.97
2023-02-24T09:09:02.086Z,5.99
2023-02-24T09:11:28.721Z,6.01
2023-02-24T09:13:56.638Z,6.00
2023-02-24T09:16:24.080Z,6.02
2023-02-24T09:18:51.129Z,6.06
2023-02-24T09:21:17.700Z,6.10
2023-02-24T09:23:45.532Z,6.13
2023-02-24T09:26:12.367Z,6.15
2023-02-24T09:28:39.377Z,6.15
2023-02-24T09:31:07.530Z,6.18
2023-02-24T09:33:36.200Z,6.22
2023-02-24T09:36:06.279Z,6.22
2023-02-24T09:38:32.880Z,6.27
2023-02-24T09:41:02.794Z,6.33
2023-02-24T09:43:31.576Z,6.39
2023-02-24T09:46:05.214Z,6.45
2023-02-24T09:48:39.271Z,6.47
2023-02-24T09:51:06.164Z,6.49
2023-02-24T09:53:35.345Z,6.51
2023-02-24T09:56:10.357Z,6.55
2023-02-24T09:58:44.247Z,6.60
2023-02-24T10:01:23.759Z,6.62
2023-02-24T10:03:57.754Z,6.60
2023-02-24T10:06:27.632Z,6.61
2023-02-24T10:08:58.696Z,6.60
2023-02-24T10:11:29.322Z,6.61
2023-02-24T10:13:56.622Z,6.60
2023-02-24T10:16:25.240Z,6.59
2023-02-24T10:19:00.777Z,6.61
2023-02-24T10:21:33.112Z,6.64
2023-02-24T10:24:08.148Z,6.63
2023-02-24T10:26:45.480Z,6.59
2023-02-24T10:29:29.028Z,6.53
2023-02-24T10:32:05.407Z,6.44
2023-02-24T10:34:33.819Z,6.34
2023-02-24T10:37:03.171Z,6.28
2023-02-24T10:39:30.504Z,6.23
2023-02-24T10:41:59.403Z,6.19
2023-02-24T10:44:28.972Z,6.12
2023-02-24T10:47:02.997Z,6.08
2023-02-24T10:49:29.726Z,6.04
2023-02-24T10:51:57.669Z,6.02
2023-02-24T10:54:26.597Z,6.06
2023-02-24T10:56:53.532Z,6.08
2023-02-24T10:59:20.124Z,6.03
2023-02-24T11:01:52.756Z,6.02
2023-02-24T11:04:19.439Z,5.99
2023-02-24T11:06:46.018Z,5.91
2023-02-24T11:09:18.860Z,5.88
2023-02-24T11:11:47.290Z,5.83
2023-02-24T11:14:17.023Z,5.78
2023-02-24T11:16:46.723Z,5.74
2023-02-24T11:19:13.444Z,5.71
2023-02-24T11:21:42.742Z,5.67
2023-02-24T11:24:16.620Z,5.66
2023-02-24T11:26:45.823Z,5.64
2023-02-24T11:29:26.205Z,5.58
2023-02-24T11:32:08.669Z,5.57
2023-02-24T11:34:43.776Z,5.53
2023-02-24T11:37:18.279Z,5.48
2023-02-24T11:39:52.036Z,5.45
2023-02-24T11:42:25.538Z,5.44
2023-02-24T11:44:58.293Z,5.41
2023-02-24T11:47:31.157Z,5.38
2023-02-24T11:50:06.286Z,5.36
2023-02-24T11:52:35.924Z,5.36
2023-02-24T11:55:12.500Z,5.40
2023-02-24T11:57:46.534Z,5.40
2023-02-24T12:00:17.346Z,5.40
2023-02-24T12:02:49.768Z,5.34
2023-02-24T12:05:19.272Z,5.29
2023-02-24T12:07:50.298Z,5.27
2023-02-24T12:10:21.356Z,5.28
2023-02-24T12:13:00.809Z,5.24
2023-02-24T12:15:31.877Z,5.21
2023-02-24T12:18:06.032Z,5.22
2023-02-24T12:20:37.593Z,5.20
2023-02-24T12:23:13.682Z,5.17
2023-02-24T12:25:56.687Z,5.12
2023-02-24T12:28:36.697Z,5.06
2023-02-24T12:31:13.471Z,5.01
2023-02-24T12:33:49.118Z,4.99
2023-02-24T12:36:27.139Z,4.91
2023-02-24T12:39:03.591Z,4.86
2023-02-24T12:41:55.296Z,4.85
2023-02-24T12:44:34.602Z,4.86
2023-02-24T12:47:06.422Z,4.85
2023-02-24T12:50:01.643Z,4.83
2023-02-24T12:52:37.798Z,4.80
2023-02-24T12:55:11.239Z,4.79
2023-02-24T12:57:45.082Z,4.75
2023-02-24T13:00:18.863Z,4.76
2023-02-24T13:02:57.453Z,4.77
2023-02-24T13:05:30.682Z,4.79
2023-02-24T13:08:18.558Z,4.79
2023-02-24T13:10:50.600Z,4.77
2023-02-24T13:13:23.429Z,4.77
2023-02-24T13:15:53.927Z,4.72
2023-02-24T13:18:25.645Z,4.69
2023-02-24T13:21:03.992Z,4.66
2023-02-24T13:23:31.018Z,4.64
2023-02-24T13:25:57.915Z,4.65
2023-02-24T13:28:27.407Z,4.62
2023-02-24T13:31:01.512Z,4.61
2023-02-24T13:33:31.299Z,4.57
2023-02-24T13:36:16.894Z,4.54
2023-02-24T13:38:45.513Z,4.54
2023-02-24T13:41:37.016Z,4.53
2023-02-24T13:44:22.843Z,4.51
2023-02-24T13:47:12.728Z,4.51
2023-02-24T13:49:50.951Z,4.51
2023-02-24T13:52:28.544Z,4.49
2023-02-24T13:55:28.867Z,4.46
2023-02-24T13:58:40.860Z,4.46
2023-02-24T14:01:09.847Z,4.46
2023-02-24T14:03:39.792Z,4.43
2023-02-24T14:06:14.290Z,4.43
2023-02-24T14:08:45.178Z,4.45
2023-02-24T14:11:15.222Z,4.48
2023-02-24T14:13:45.909Z,4.46
2023-02-24T14:16:19.635Z,4.45
2023-02-24T14:18:56.046Z,4.45
2023-02-24T14:21:25.067Z,4.44
2023-02-24T14:23:59.872Z,4.46
2023-02-24T14:26:28.168Z,4.43
2023-02-24T14:28:57.944Z,4.42
2023-02-24T14:31:26.186Z,4.42
2023-02-24T14:33:58.523Z,4.42
2023-02-24T14:36:28.573Z,4.41
2023-02-24T14:39:12.649Z,4.38
2023-02-24T14:41:39.498Z,4.38
2023-02-24T14:44:17.115Z,4.36
2023-02-24T14:46:48.413Z,4.36
2023-02-24T14:49:21.291Z,4.35
2023-02-24T14:51:52.631Z,4.33
2023-02-24T14:54:35.337Z,4.29
2023-02-24T14:57:02.857Z,4.29
2023-02-24T14:59:33.265Z,4.30
2023-02-24T15:02:01.374Z,4.30
2023-02-24T15:04:34.266Z,4.27
2023-02-24T15:07:03.185Z,4.26
2023-02-24T15:09:36.607Z,4.27
2023-02-24T15:12:12.141Z,4.26
2023-02-24T15:14:41.288Z,4.26
2023-02-24T15:17:15.001Z,4.25
2023-02-24T15:19:43.624Z,4.25
2023-02-24T15:22:19.721Z,4.24
2023-02-24T15:24:46.461Z,4.21
2023-02-24T15:27:22.171Z,4.22
2023-02-24T15:29:58.721Z,4.21
2023-02-24T15:32:27.311Z,4.21
2023-02-24T15:34:55.755Z,4.20
2023-02-24T15:37:24.098Z,4.20
2023-02-24T15:39:55.389Z,4.21
2023-02-24T15:42:26.129Z,4.21
2023-02-24T15:44:54.981Z,4.20
2023-02-24T15:47:24.176Z,4.20
2023-02-24T15:49:50.873Z,4.20
2023-02-24T15:52:22.612Z,4.19
2023-02-24T15:54:50.233Z,4.17
2023-02-24T15:57:18.230Z,4.15
2023-02-24T15:59:45.242Z,4.14
2023-02-24T16:02:13.726Z,4.16
2023-02-24T16:04:40.343Z,4.15
2023-02-24T16:07:10.854Z,4.16
2023-02-24T16:09:40.768Z,4.16
2023-02-24T16:12:11.150Z,4.16
2023-02-24T16:14:38.348Z,4.16
2023-02-24T16:17:08.758Z,4.14
2023-02-24T16:19:35.485Z,4.16
2023-02-24T16:22:02.222Z,4.17
2023-02-24T16:24:28.865Z,4.18
2023-02-24T16:26:56.850Z,4.18
2023-02-24T16:29:23.430Z,4.18
2023-02-24T16:31:50.421Z,4.18
2023-02-24T16:34:17.312Z,4.18
2023-02-24T16:36:44.332Z,4.18
2023-02-24T16:39:12.349Z,4.18
2023-02-24T16:41:39.050Z,4.18
2023-02-24T16:44:07.058Z,4.20
2023-02-24T16:46:39.068Z,4.17
2023-02-24T16:49:09.723Z,4.18
2023-02-24T16:51:36.465Z,4.16
2023-02-24T16:54:03.423Z,4.16
2023-02-24T16:56:30.692Z,4.15
2023-02-24T16:58:57.298Z,4.15
2023-02-24T17:01:25.544Z,4.15
2023-02-24T17:03:53.583Z,4.13
2023-02-24T17:06:22.997Z,4.13
2023-02-24T17:08:50.702Z,4.13
2023-02-24T17:11:20.866Z,4.13
2023-02-24T17:13:47.569Z,4.14
2023-02-24T17:16:14.257Z,4.15
2023-02-24T17:18:42.267Z,4.18
2023-02-24T17:21:11.722Z,4.18
2023-02-24T17:23:38.357Z,4.19
2023-02-24T17:26:05.251Z,4.21
2023-02-24T17:28:31.929Z,4.21
2023-02-24T17:30:58.626Z,4.21
2023-02-24T17:33:25.281Z,4.21
2023-02-24T17:35:53.246Z,4.22
2023-02-24T17:38:21.462Z,4.24
2023-02-24T17:40:48.233Z,4.25
2023-02-24T17:43:14.872Z,4.26
2023-02-24T17:45:42.110Z,4.28
2023-02-24T17:48:08.699Z,4.30
2023-02-24T17:50:35.405Z,4.31
2023-02-24T17:53:03.723Z,4.30
2023-02-24T17:55:31.978Z,4.30
2023-02-24T17:57:59.340Z,4.31
2023-02-24T18:00:26.480Z,4.31
2023-02-24T18:02:53.672Z,4.31
2023-02-24T18:05:20.381Z,4.30
2023-02-24T18:07:47.091Z,4.30
2023-02-24T18:10:15.164Z,4.33
2023-02-24T18:12:41.832Z,4.33
2023-02-24T18:15:09.848Z,4.32
2023-02-24T18:17:37.148Z,4.31
2023-02-24T18:20:04.409Z,4.34
2023-02-24T18:22:31.326Z,4.36
2023-02-24T18:24:58.100Z,4.38
2023-02-24T18:27:26.538Z,4.37
2023-02-24T18:29:53.298Z,4.36
2023-02-24T18:32:20.115Z,4.37
2023-02-24T18:34:47.216Z,4.38
2023-02-24T18:37:13.868Z,4.39
2023-02-24T18:39:40.507Z,4.40
2023-02-24T18:42:07.144Z,4.42
2023-02-24T18:44:35.150Z,4.42
2023-02-24T18:47:01.941Z,4.45
2023-02-24T18:49:28.631Z,4.47
2023-02-24T18:51:55.237Z,4.48
2023-02-24T18:54:21.870Z,4.51
2023-02-24T18:56:48.513Z,4.52
2023-02-24T18:59:15.183Z,4.53
2023-02-24T19:01:43.299Z,4.54
2023-02-24T19:04:11.790Z,4.55
2023-02-24T19:06:38.775Z,4.55
2023-02-24T19:09:07.113Z,4.57
2023-02-24T19:11:33.913Z,4.57
2023-02-24T19:14:00.656Z,4.57
2023-02-24T19:16:27.655Z,4.58
2023-02-24T19:18:58.396Z,4.57
2023-02-24T19:21:26.030Z,4.60
2023-02-24T19:23:52.823Z,4.61
2023-02-24T19:26:21.699Z,4.61
2023-02-24T19:28:48.814Z,4.62
2023-02-24T19:31:20.628Z,4.63
2023-02-24T19:33:52.044Z,4.65
2023-02-24T19:36:20.326Z,4.67
2023-02-24T19:38:47.237Z,4.65
2023-02-24T19:41:14.005Z,4.66
2023-02-24T19:43:40.614Z,4.64
2023-02-24T19:46:08.807Z,4.64
2023-02-24T19:48:36.163Z,4.64
2023-02-24T19:51:08.637Z,4.64
2023-02-24T19:53:36.924Z,4.64
2023-02-24T19:56:03.656Z,4.67
2023-02-24T19:58:30.394Z,4.68
2023-02-24T20:01:04.393Z,4.70
2023-02-24T20:03:31.126Z,4.71
2023-02-24T20:05:57.961Z,4.70
2023-02-24T20:08:24.649Z,4.71
2023-02-24T20:11:00.013Z,4.72
2023-02-24T20:13:26.707Z,4.72
2023-02-24T20:15:53.342Z,4.74
2023-02-24T20:18:19.959Z,4.74
2023-02-24T20:20:46.610Z,4.74
2023-02-24T20:23:13.341Z,4.75
2023-02-24T20:25:40.097Z,4.75
2023-02-24T20:28:08.144Z,4.75
2023-02-24T20:30:37.132Z,4.75
2023-02-24T20:33:04.024Z,4.75
2023-02-24T20:35:30.736Z,4.77
2023-02-24T20:37:57.610Z,4.79
2023-02-24T20:40:24.613Z,4.79
2023-02-24T20:42:51.460Z,4.80
2023-02-24T20:45:19.606Z,4.80
2023-02-24T20:47:46.348Z,4.81
2023-02-24T20:50:13.038Z,4.82
2023-02-24T20:52:39.874Z,4.82
2023-02-24T20:55:07.521Z,4.83
2023-02-24T20:57:34.217Z,4.84
2023-02-24T21:00:04.227Z,4.85
2023-02-24T21:02:32.474Z,4.85
2023-02-24T21:04:59.194Z,4.83
2023-02-24T21:07:26.029Z,4.81
2023-02-24T21:09:52.821Z,4.80
2023-02-24T21:12:19.462Z,4.79
2023-02-24T21:14:46.109Z,4.80
2023-02-24T21:17:12.798Z,4.78
2023-02-24T21:19:41.074Z,4.79
2023-02-24T21:22:07.736Z,4.79
2023-02-24T21:24:34.363Z,4.81
2023-02-24T21:27:01.149Z,4.81
2023-02-24T21:29:27.828Z,4.81
2023-02-24T21:31:54.513Z,4.83
2023-02-24T21:34:21.358Z,4.83
2023-02-24T21:36:49.822Z,4.84
2023-02-24T21:39:16.486Z,4.85
2023-02-24T21:41:43.449Z,4.85
2023-02-24T21:44:11.749Z,4.86
2023-02-24T21:46:38.582Z,4.87
2023-02-24T21:49:05.299Z,4.88
2023-02-24T21:51:31.967Z,4.88
2023-02-24T21:53:59.931Z,4.90
2023-02-24T21:56:28.846Z,4.90
2023-02-24T21:58:58.130Z,4.90
2023-02-24T22:01:27.360Z,4.90
2023-02-24T22:03:55.014Z,4.92
2023-02-24T22:06:22.159Z,4.92
2023-02-24T22:08:48.937Z,4.92
2023-02-24T22:11:19.652Z,4.93
2023-02-24T22:13:46.979Z,4.93
2023-02-24T22:16:16.222Z,4.94
2023-02-24T22:18:42.955Z,4.95
2023-02-24T22:21:11.540Z,4.96
2023-02-24T22:23:38.923Z,4.98
2023-02-24T22:26:07.054Z,4.98
2023-02-24T22:28:36.950Z,4.99
2023-02-24T22:31:03.681Z,4.99
2023-02-24T22:33:32.529Z,5.00
2023-02-24T22:36:01.441Z,5.00
2023-02-24T22:38:30.402Z,5.00
2023-02-24T22:40:58.152Z,5.01
2023-02-24T22:43:25.094Z,4.99
2023-02-24T22:45:58.147Z,4.99
2023-02-24T22:48:26.630Z,4.98
2023-02-24T22:50:54.781Z,4.98
2023-02-24T22:53:21.805Z,4.99
2023-02-24T22:55:49.132Z,5.00
2023-02-24T22:58:16.120Z,5.02
2023-02-24T23:00:43.060Z,5.03
2023-02-24T23:03:11.143Z,5.04
2023-02-24T23:05:37.698Z,5.05
2023-02-24T23:08:04.400Z,5.05
2023-02-24T23:10:31.031Z,5.04
2023-02-24T23:12:57.679Z,5.06
2023-02-24T23:15:24.242Z,5.04
2023-02-24T23:17:50.900Z,5.04
2023-02-24T23:20:19.558Z,5.05
2023-02-24T23:22:46.306Z,5.04
2023-02-24T23:25:12.985Z,5.01
2023-02-24T23:27:40.391Z,5.03
2023-02-24T23:30:08.830Z,5.00
2023-02-24T23:32:35.986Z,4.97
2023-02-24T23:35:03.174Z,4.94
2023-02-24T23:37:31.082Z,4.93
2023-02-24T23:39:57.779Z,4.92
2023-02-24T23:42:24.363Z,4.92
2023-02-24T23:44:51.068Z,4.92
2023-02-24T23:47:17.666Z,4.90
2023-02-24T23:49:48.541Z,4.91
2023-02-24T23:52:15.353Z,4.89
2023-02-24T23:54:43.702Z,4.88
2023-02-24T23:57:10.305Z,4.87
2023-02-24T23:59:37.228Z,4.88
